Weather at Rūdiškės Airfield

Public forecast

Using degrees Celsius for public forecast. Weather courtesy of forecast.io.

Closest aviation weather report (METAR) to Rūdiškės Airfield

Closest report is Vilnius International Airport, 21.5 nm (39.7 km) ENE.

2024/06/20 18:20 (retrieved 13 minutes ago)

EYVI 201820Z 28010KT CAVOK 18/09 Q1018 NOSIG

Closest aviation forecast (TAF) to Rūdiškės Airfield

Closest forecast is Vilnius International Airport, 21.5 nm (39.7 km) ENE.

2024/06/20 18:00 (retrieved 33 minutes ago)

TAF EYVI 201702Z 2018/2118 28012KT 9000 SCT040 BECMG 2018/2020 VRB04KT NSC BECMG 2108/2110 28012KT